sensor_id;sensor_type;location;lat;lon;timestamp;temperature;humidity
19966;DHT22;10144;50.874;4.762;2023-05-15T00:00:33;12.00;99.90
19966;DHT22;10144;50.874;4.762;2023-05-15T00:03:02;11.90;99.90
19966;DHT22;10144;50.874;4.762;2023-05-15T00:05:30;11.90;99.90
19966;DHT22;10144;50.874;4.762;2023-05-15T00:07:59;11.70;99.90
19966;DHT22;10144;50.874;4.762;2023-05-15T00:10:30;11.60;99.90
19966;DHT22;10144;50.874;4.762;2023-05-15T00:12:57;11.50;99.90
19966;DHT22;10144;50.874;4.762;2023-05-15T00:15:26;11.50;99.90
19966;DHT22;10144;50.874;4.762;2023-05-15T00:17:51;11.40;99.90
19966;DHT22;10144;50.874;4.762;2023-05-15T00:20:21;11.30;99.90
19966;DHT22;10144;50.874;4.762;2023-05-15T00:22:47;11.30;99.90
19966;DHT22;10144;50.874;4.762;2023-05-15T00:25:15;11.40;99.90
19966;DHT22;10144;50.874;4.762;2023-05-15T00:27:41;11.40;99.90
19966;DHT22;10144;50.874;4.762;2023-05-15T00:30:25;11.30;99.90
19966;DHT22;10144;50.874;4.762;2023-05-15T00:32:52;11.20;99.90
19966;DHT22;10144;50.874;4.762;2023-05-15T00:35:18;11.10;99.90
19966;DHT22;10144;50.874;4.762;2023-05-15T00:37:45;11.10;99.90
19966;DHT22;10144;50.874;4.762;2023-05-15T00:40:17;11.10;99.90
19966;DHT22;10144;50.874;4.762;2023-05-15T00:42:52;11.20;99.90
19966;DHT22;10144;50.874;4.762;2023-05-15T00:45:19;10.90;99.90
19966;DHT22;10144;50.874;4.762;2023-05-15T00:47:46;11.00;99.90
19966;DHT22;10144;50.874;4.762;2023-05-15T00:50:13;10.90;99.90
19966;DHT22;10144;50.874;4.762;2023-05-15T00:52:42;10.90;99.90
19966;DHT22;10144;50.874;4.762;2023-05-15T00:55:10;11.00;99.90
19966;DHT22;10144;50.874;4.762;2023-05-15T00:57:36;11.00;99.90
19966;DHT22;10144;50.874;4.762;2023-05-15T01:00:04;11.00;99.90
19966;DHT22;10144;50.874;4.762;2023-05-15T01:02:41;11.00;99.90
19966;DHT22;10144;50.874;4.762;2023-05-15T01:05:09;11.10;99.90
19966;DHT22;10144;50.874;4.762;2023-05-15T01:07:42;11.10;99.90
19966;DHT22;10144;50.874;4.762;2023-05-15T01:10:12;11.10;99.90
19966;DHT22;10144;50.874;4.762;2023-05-15T01:12:39;11.10;99.90
19966;DHT22;10144;50.874;4.762;2023-05-15T01:15:06;11.10;99.90
19966;DHT22;10144;50.874;4.762;2023-05-15T01:17:32;11.00;99.90
19966;DHT22;10144;50.874;4.762;2023-05-15T01:20:00;11.00;99.90
19966;DHT22;10144;50.874;4.762;2023-05-15T01:22:51;11.00;99.90
19966;DHT22;10144;50.874;4.762;2023-05-15T01:25:42;11.10;99.90
19966;DHT22;10144;50.874;4.762;2023-05-15T01:28:29;11.30;99.90
19966;DHT22;10144;50.874;4.762;2023-05-15T01:30:56;11.20;99.90
19966;DHT22;10144;50.874;4.762;2023-05-15T01:33:32;11.10;99.90
19966;DHT22;10144;50.874;4.762;2023-05-15T01:36:23;11.10;99.90
19966;DHT22;10144;50.874;4.762;2023-05-15T01:38:56;11.20;99.90
19966;DHT22;10144;50.874;4.762;2023-05-15T01:44:07;11.00;99.90
19966;DHT22;10144;50.874;4.762;2023-05-15T01:46:43;11.00;99.90
19966;DHT22;10144;50.874;4.762;2023-05-15T01:49:12;11.00;99.90
19966;DHT22;10144;50.874;4.762;2023-05-15T01:51:41;11.10;99.90
19966;DHT22;10144;50.874;4.762;2023-05-15T01:54:09;11.00;99.90
19966;DHT22;10144;50.874;4.762;2023-05-15T01:56:39;11.10;99.90
19966;DHT22;10144;50.874;4.762;2023-05-15T01:59:09;11.10;99.90
19966;DHT22;10144;50.874;4.762;2023-05-15T02:01:39;11.10;99.90
19966;DHT22;10144;50.874;4.762;2023-05-15T02:04:07;11.20;99.90
19966;DHT22;10144;50.874;4.762;2023-05-15T02:06:34;11.20;99.90
19966;DHT22;10144;50.874;4.762;2023-05-15T02:09:02;11.20;99.90
19966;DHT22;10144;50.874;4.762;2023-05-15T02:11:29;11.20;99.90
19966;DHT22;10144;50.874;4.762;2023-05-15T02:13:56;11.20;99.90
19966;DHT22;10144;50.874;4.762;2023-05-15T02:16:23;11.20;99.90
19966;DHT22;10144;50.874;4.762;2023-05-15T02:18:49;11.10;99.90
19966;DHT22;10144;50.874;4.762;2023-05-15T02:21:17;11.20;99.90
19966;DHT22;10144;50.874;4.762;2023-05-15T02:23:45;11.30;99.90
19966;DHT22;10144;50.874;4.762;2023-05-15T02:26:25;11.30;99.90
19966;DHT22;10144;50.874;4.762;2023-05-15T02:29:20;11.20;99.90
19966;DHT22;10144;50.874;4.762;2023-05-15T02:34:51;11.10;99.90
19966;DHT22;10144;50.874;4.762;2023-05-15T02:37:26;11.20;99.90
19966;DHT22;10144;50.874;4.762;2023-05-15T02:39:55;11.20;99.90
19966;DHT22;10144;50.874;4.762;2023-05-15T02:42:28;11.10;99.90
19966;DHT22;10144;50.874;4.762;2023-05-15T02:44:54;11.10;99.90
19966;DHT22;10144;50.874;4.762;2023-05-15T02:47:25;11.00;99.90
19966;DHT22;10144;50.874;4.762;2023-05-15T02:49:55;10.80;99.90
19966;DHT22;10144;50.874;4.762;2023-05-15T02:52:24;10.80;99.90
19966;DHT22;10144;50.874;4.762;2023-05-15T02:54:53;10.80;99.90
19966;DHT22;10144;50.874;4.762;2023-05-15T02:57:21;10.90;99.90
19966;DHT22;10144;50.874;4.762;2023-05-15T02:59:52;11.00;99.90
19966;DHT22;10144;50.874;4.762;2023-05-15T03:02:19;11.00;99.90
19966;DHT22;10144;50.874;4.762;2023-05-15T03:04:48;11.00;99.90
19966;DHT22;10144;50.874;4.762;2023-05-15T03:07:14;10.90;99.90
19966;DHT22;10144;50.874;4.762;2023-05-15T03:09:46;10.80;99.90
19966;DHT22;10144;50.874;4.762;2023-05-15T03:12:16;10.80;99.90
19966;DHT22;10144;50.874;4.762;2023-05-15T03:14:43;10.70;99.90
19966;DHT22;10144;50.874;4.762;2023-05-15T03:17:09;10.70;99.90
19966;DHT22;10144;50.874;4.762;2023-05-15T03:19:36;10.80;99.90
19966;DHT22;10144;50.874;4.762;2023-05-15T03:22:07;10.70;99.90
19966;DHT22;10144;50.874;4.762;2023-05-15T03:24:33;10.80;99.90
19966;DHT22;10144;50.874;4.762;2023-05-15T03:27:05;10.80;99.90
19966;DHT22;10144;50.874;4.762;2023-05-15T03:29:31;10.70;99.90
19966;DHT22;10144;50.874;4.762;2023-05-15T03:31:59;10.70;99.90
19966;DHT22;10144;50.874;4.762;2023-05-15T03:34:26;10.80;99.90
19966;DHT22;10144;50.874;4.762;2023-05-15T03:36:55;10.90;99.90
19966;DHT22;10144;50.874;4.762;2023-05-15T03:39:24;11.00;99.90
19966;DHT22;10144;50.874;4.762;2023-05-15T03:41:56;11.00;99.90
19966;DHT22;10144;50.874;4.762;2023-05-15T03:44:22;11.00;99.90
19966;DHT22;10144;50.874;4.762;2023-05-15T03:47:07;10.90;99.90
19966;DHT22;10144;50.874;4.762;2023-05-15T03:49:38;11.00;99.90
19966;DHT22;10144;50.874;4.762;2023-05-15T03:52:14;11.00;99.90
19966;DHT22;10144;50.874;4.762;2023-05-15T03:54:43;11.10;99.90
19966;DHT22;10144;50.874;4.762;2023-05-15T03:57:12;11.10;99.90
19966;DHT22;10144;50.874;4.762;2023-05-15T03:59:39;11.10;99.90
19966;DHT22;10144;50.874;4.762;2023-05-15T04:02:06;11.10;99.90
19966;DHT22;10144;50.874;4.762;2023-05-15T04:04:32;10.90;99.90
19966;DHT22;10144;50.874;4.762;2023-05-15T04:07:26;10.90;99.90
19966;DHT22;10144;50.874;4.762;2023-05-15T04:09:51;10.90;99.90
19966;DHT22;10144;50.874;4.762;2023-05-15T04:12:20;10.90;99.90
19966;DHT22;10144;50.874;4.762;2023-05-15T04:14:47;10.90;99.90
19966;DHT22;10144;50.874;4.762;2023-05-15T04:17:25;10.90;99.90
19966;DHT22;10144;50.874;4.762;2023-05-15T04:19:54;10.80;99.90
19966;DHT22;10144;50.874;4.762;2023-05-15T04:22:23;10.90;99.90
19966;DHT22;10144;50.874;4.762;2023-05-15T04:24:55;10.90;99.90
19966;DHT22;10144;50.874;4.762;2023-05-15T04:27:22;10.80;99.90
19966;DHT22;10144;50.874;4.762;2023-05-15T04:29:48;10.80;99.90
19966;DHT22;10144;50.874;4.762;2023-05-15T04:32:17;10.80;99.90
19966;DHT22;10144;50.874;4.762;2023-05-15T04:34:42;10.70;99.90
19966;DHT22;10144;50.874;4.762;2023-05-15T04:37:11;10.80;99.90
19966;DHT22;10144;50.874;4.762;2023-05-15T04:39:39;10.90;99.90
19966;DHT22;10144;50.874;4.762;2023-05-15T04:42:06;10.90;99.90
19966;DHT22;10144;50.874;4.762;2023-05-15T04:44:32;11.00;99.90
19966;DHT22;10144;50.874;4.762;2023-05-15T04:47:04;11.00;99.90
19966;DHT22;10144;50.874;4.762;2023-05-15T04:49:33;10.90;99.90
19966;DHT22;10144;50.874;4.762;2023-05-15T04:52:01;10.90;99.90
19966;DHT22;10144;50.874;4.762;2023-05-15T04:54:30;10.90;99.90
19966;DHT22;10144;50.874;4.762;2023-05-15T04:56:56;11.00;99.90
19966;DHT22;10144;50.874;4.762;2023-05-15T04:59:24;11.00;99.90
19966;DHT22;10144;50.874;4.762;2023-05-15T05:01:53;11.10;99.90
19966;DHT22;10144;50.874;4.762;2023-05-15T05:04:21;11.20;99.90
19966;DHT22;10144;50.874;4.762;2023-05-15T05:06:48;11.30;99.90
19966;DHT22;10144;50.874;4.762;2023-05-15T05:09:13;11.30;99.90
19966;DHT22;10144;50.874;4.762;2023-05-15T05:11:42;11.40;99.90
19966;DHT22;10144;50.874;4.762;2023-05-15T05:14:14;11.50;99.90
19966;DHT22;10144;50.874;4.762;2023-05-15T05:16:43;11.60;99.90
19966;DHT22;10144;50.874;4.762;2023-05-15T05:19:09;11.60;99.90
19966;DHT22;10144;50.874;4.762;2023-05-15T05:21:38;11.60;99.90
19966;DHT22;10144;50.874;4.762;2023-05-15T05:24:07;11.70;99.90
19966;DHT22;10144;50.874;4.762;2023-05-15T05:26:32;11.70;99.90
19966;DHT22;10144;50.874;4.762;2023-05-15T05:29:02;11.70;99.90
19966;DHT22;10144;50.874;4.762;2023-05-15T05:31:31;11.70;99.90
19966;DHT22;10144;50.874;4.762;2023-05-15T05:33:58;11.60;99.90
19966;DHT22;10144;50.874;4.762;2023-05-15T05:36:24;11.60;99.90
19966;DHT22;10144;50.874;4.762;2023-05-15T05:38:50;11.60;99.90
19966;DHT22;10144;50.874;4.762;2023-05-15T05:41:19;11.70;99.90
19966;DHT22;10144;50.874;4.762;2023-05-15T05:43:47;11.70;99.90
19966;DHT22;10144;50.874;4.762;2023-05-15T05:46:15;11.60;99.90
19966;DHT22;10144;50.874;4.762;2023-05-15T05:48:41;11.40;99.90
19966;DHT22;10144;50.874;4.762;2023-05-15T05:51:09;11.10;99.90
19966;DHT22;10144;50.874;4.762;2023-05-15T05:53:39;11.10;99.90
19966;DHT22;10144;50.874;4.762;2023-05-15T05:56:07;11.10;99.90
19966;DHT22;10144;50.874;4.762;2023-05-15T05:58:36;11.20;99.90
19966;DHT22;10144;50.874;4.762;2023-05-15T06:01:01;11.30;99.90
19966;DHT22;10144;50.874;4.762;2023-05-15T06:03:27;11.40;99.90
19966;DHT22;10144;50.874;4.762;2023-05-15T06:05:53;11.30;99.90
19966;DHT22;10144;50.874;4.762;2023-05-15T06:08:19;11.30;99.90
19966;DHT22;10144;50.874;4.762;2023-05-15T06:10:45;11.30;99.90
19966;DHT22;10144;50.874;4.762;2023-05-15T06:13:11;11.40;99.90
19966;DHT22;10144;50.874;4.762;2023-05-15T06:15:39;11.40;99.90
19966;DHT22;10144;50.874;4.762;2023-05-15T06:18:07;11.40;99.90
19966;DHT22;10144;50.874;4.762;2023-05-15T06:20:37;11.30;99.90
19966;DHT22;10144;50.874;4.762;2023-05-15T06:23:02;11.40;99.90
19966;DHT22;10144;50.874;4.762;2023-05-15T06:25:28;11.40;99.90
19966;DHT22;10144;50.874;4.762;2023-05-15T06:27:54;11.40;99.90
19966;DHT22;10144;50.874;4.762;2023-05-15T06:30:20;11.40;99.90
19966;DHT22;10144;50.874;4.762;2023-05-15T06:32:45;11.50;99.90
19966;DHT22;10144;50.874;4.762;2023-05-15T06:35:11;11.50;99.90
19966;DHT22;10144;50.874;4.762;2023-05-15T06:37:37;11.50;99.90
19966;DHT22;10144;50.874;4.762;2023-05-15T06:40:04;11.40;99.90
19966;DHT22;10144;50.874;4.762;2023-05-15T06:42:30;11.40;99.90
19966;DHT22;10144;50.874;4.762;2023-05-15T06:44:57;11.50;99.90
19966;DHT22;10144;50.874;4.762;2023-05-15T06:47:23;11.60;99.90
19966;DHT22;10144;50.874;4.762;2023-05-15T06:49:49;11.70;99.90
19966;DHT22;10144;50.874;4.762;2023-05-15T06:52:15;11.80;99.90
19966;DHT22;10144;50.874;4.762;2023-05-15T06:54:40;11.80;99.90
19966;DHT22;10144;50.874;4.762;2023-05-15T06:57:13;11.90;99.90
19966;DHT22;10144;50.874;4.762;2023-05-15T06:59:42;11.80;99.90
19966;DHT22;10144;50.874;4.762;2023-05-15T07:02:10;11.90;99.90
19966;DHT22;10144;50.874;4.762;2023-05-15T07:04:36;12.10;99.90
19966;DHT22;10144;50.874;4.762;2023-05-15T07:07:02;12.20;99.90
19966;DHT22;10144;50.874;4.762;2023-05-15T07:09:27;12.40;99.90
19966;DHT22;10144;50.874;4.762;2023-05-15T07:11:53;12.50;99.90
19966;DHT22;10144;50.874;4.762;2023-05-15T07:14:19;12.60;99.90
19966;DHT22;10144;50.874;4.762;2023-05-15T07:16:44;12.80;99.90
19966;DHT22;10144;50.874;4.762;2023-05-15T07:19:11;13.00;99.90
19966;DHT22;10144;50.874;4.762;2023-05-15T07:21:38;13.10;99.90
19966;DHT22;10144;50.874;4.762;2023-05-15T07:24:04;13.20;99.90
19966;DHT22;10144;50.874;4.762;2023-05-15T07:26:31;13.30;99.90
19966;DHT22;10144;50.874;4.762;2023-05-15T07:28:58;13.30;99.90
19966;DHT22;10144;50.874;4.762;2023-05-15T07:31:23;13.40;99.90
19966;DHT22;10144;50.874;4.762;2023-05-15T07:33:49;13.50;99.90
19966;DHT22;10144;50.874;4.762;2023-05-15T07:36:15;13.40;99.90
19966;DHT22;10144;50.874;4.762;2023-05-15T07:38:41;13.50;99.90
19966;DHT22;10144;50.874;4.762;2023-05-15T07:41:06;13.60;99.90
19966;DHT22;10144;50.874;4.762;2023-05-15T07:43:32;13.70;99.90
19966;DHT22;10144;50.874;4.762;2023-05-15T07:46:00;13.80;99.90
19966;DHT22;10144;50.874;4.762;2023-05-15T07:48:25;13.80;99.90
19966;DHT22;10144;50.874;4.762;2023-05-15T07:50:51;13.80;99.90
19966;DHT22;10144;50.874;4.762;2023-05-15T07:53:18;13.80;99.90
19966;DHT22;10144;50.874;4.762;2023-05-15T07:55:44;13.70;99.90
19966;DHT22;10144;50.874;4.762;2023-05-15T07:58:10;13.70;99.90
19966;DHT22;10144;50.874;4.762;2023-05-15T08:00:36;13.60;99.90
19966;DHT22;10144;50.874;4.762;2023-05-15T08:03:02;13.70;99.90
19966;DHT22;10144;50.874;4.762;2023-05-15T08:05:28;13.80;99.90
19966;DHT22;10144;50.874;4.762;2023-05-15T08:07:55;14.00;99.90
19966;DHT22;10144;50.874;4.762;2023-05-15T08:10:20;14.10;99.90
19966;DHT22;10144;50.874;4.762;2023-05-15T08:12:54;14.10;99.90
19966;DHT22;10144;50.874;4.762;2023-05-15T08:15:22;14.40;99.90
19966;DHT22;10144;50.874;4.762;2023-05-15T08:17:51;14.60;99.90
19966;DHT22;10144;50.874;4.762;2023-05-15T08:20:20;14.90;99.90
19966;DHT22;10144;50.874;4.762;2023-05-15T08:22:47;15.20;99.90
19966;DHT22;10144;50.874;4.762;2023-05-15T08:25:12;15.50;99.90
19966;DHT22;10144;50.874;4.762;2023-05-15T08:27:38;15.90;99.90
19966;DHT22;10144;50.874;4.762;2023-05-15T08:30:04;16.20;99.90
19966;DHT22;10144;50.874;4.762;2023-05-15T08:32:30;16.40;99.90
19966;DHT22;10144;50.874;4.762;2023-05-15T08:34:56;16.80;99.90
19966;DHT22;10144;50.874;4.762;2023-05-15T08:37:22;17.30;99.90
19966;DHT22;10144;50.874;4.762;2023-05-15T08:39:48;17.60;99.90
19966;DHT22;10144;50.874;4.762;2023-05-15T08:42:15;17.80;99.90
19966;DHT22;10144;50.874;4.762;2023-05-15T08:44:44;17.90;99.90
19966;DHT22;10144;50.874;4.762;2023-05-15T08:47:10;18.10;99.90
19966;DHT22;10144;50.874;4.762;2023-05-15T08:49:57;17.30;99.90
19966;DHT22;10144;50.874;4.762;2023-05-15T08:52:25;17.60;99.90
19966;DHT22;10144;50.874;4.762;2023-05-15T08:54:52;18.50;99.90
19966;DHT22;10144;50.874;4.762;2023-05-15T08:57:18;19.20;99.90
19966;DHT22;10144;50.874;4.762;2023-05-15T08:59:44;19.60;99.90
19966;DHT22;10144;50.874;4.762;2023-05-15T09:02:11;20.20;99.90
19966;DHT22;10144;50.874;4.762;2023-05-15T09:04:37;20.60;99.90
19966;DHT22;10144;50.874;4.762;2023-05-15T09:07:03;21.30;99.90
19966;DHT22;10144;50.874;4.762;2023-05-15T09:09:31;21.80;99.90
19966;DHT22;10144;50.874;4.762;2023-05-15T09:11:59;22.50;99.90
19966;DHT22;10144;50.874;4.762;2023-05-15T09:14:25;22.80;99.90
19966;DHT22;10144;50.874;4.762;2023-05-15T09:16:51;22.80;99.90
19966;DHT22;10144;50.874;4.762;2023-05-15T09:19:18;23.10;99.90
19966;DHT22;10144;50.874;4.762;2023-05-15T09:21:45;23.70;99.90
19966;DHT22;10144;50.874;4.762;2023-05-15T09:24:24;23.90;99.90
19966;DHT22;10144;50.874;4.762;2023-05-15T09:27:05;23.80;99.90
19966;DHT22;10144;50.874;4.762;2023-05-15T09:29:32;23.70;99.90
19966;DHT22;10144;50.874;4.762;2023-05-15T09:32:05;23.20;99.90
19966;DHT22;10144;50.874;4.762;2023-05-15T09:34:33;22.90;99.90
19966;DHT22;10144;50.874;4.762;2023-05-15T09:37:00;23.00;99.90
19966;DHT22;10144;50.874;4.762;2023-05-15T09:39:26;23.30;99.90
19966;DHT22;10144;50.874;4.762;2023-05-15T09:41:52;23.60;99.90
19966;DHT22;10144;50.874;4.762;2023-05-15T09:44:23;23.80;99.90
19966;DHT22;10144;50.874;4.762;2023-05-15T09:46:50;23.80;99.90
19966;DHT22;10144;50.874;4.762;2023-05-15T09:49:16;23.90;99.90
19966;DHT22;10144;50.874;4.762;2023-05-15T09:51:46;24.00;99.90
19966;DHT22;10144;50.874;4.762;2023-05-15T09:54:18;24.00;99.90
19966;DHT22;10144;50.874;4.762;2023-05-15T09:56:46;23.70;99.90
19966;DHT22;10144;50.874;4.762;2023-05-15T09:59:13;23.60;99.90
19966;DHT22;10144;50.874;4.762;2023-05-15T10:01:42;23.80;99.90
19966;DHT22;10144;50.874;4.762;2023-05-15T10:04:09;23.40;99.90
19966;DHT22;10144;50.874;4.762;2023-05-15T10:06:40;23.20;99.90
19966;DHT22;10144;50.874;4.762;2023-05-15T10:09:07;22.90;99.90
19966;DHT22;10144;50.874;4.762;2023-05-15T10:11:41;22.30;99.90
19966;DHT22;10144;50.874;4.762;2023-05-15T10:14:11;22.00;99.90
19966;DHT22;10144;50.874;4.762;2023-05-15T10:16:39;21.90;99.90
19966;DHT22;10144;50.874;4.762;2023-05-15T10:19:07;22.00;99.90
19966;DHT22;10144;50.874;4.762;2023-05-15T10:21:37;22.00;99.90
19966;DHT22;10144;50.874;4.762;2023-05-15T10:24:03;21.80;99.90
19966;DHT22;10144;50.874;4.762;2023-05-15T10:26:40;21.70;99.90
19966;DHT22;10144;50.874;4.762;2023-05-15T10:29:09;21.70;99.90
19966;DHT22;10144;50.874;4.762;2023-05-15T10:31:35;22.30;99.90
19966;DHT22;10144;50.874;4.762;2023-05-15T10:34:04;22.80;99.90
19966;DHT22;10144;50.874;4.762;2023-05-15T10:36:31;22.90;99.90
19966;DHT22;10144;50.874;4.762;2023-05-15T10:38:59;22.70;99.90
19966;DHT22;10144;50.874;4.762;2023-05-15T10:41:36;22.30;99.90
19966;DHT22;10144;50.874;4.762;2023-05-15T10:44:02;21.50;99.90
19966;DHT22;10144;50.874;4.762;2023-05-15T10:46:30;21.20;99.90
19966;DHT22;10144;50.874;4.762;2023-05-15T10:48:58;21.50;99.90
19966;DHT22;10144;50.874;4.762;2023-05-15T10:51:30;21.80;99.90
19966;DHT22;10144;50.874;4.762;2023-05-15T10:54:00;22.00;99.90
19966;DHT22;10144;50.874;4.762;2023-05-15T10:56:32;22.10;99.90
19966;DHT22;10144;50.874;4.762;2023-05-15T10:59:07;22.30;99.90
19966;DHT22;10144;50.874;4.762;2023-05-15T11:01:36;22.70;99.90
19966;DHT22;10144;50.874;4.762;2023-05-15T11:04:13;22.50;99.90
19966;DHT22;10144;50.874;4.762;2023-05-15T11:06:47;22.40;99.90
19966;DHT22;10144;50.874;4.762;2023-05-15T11:12:16;22.70;99.90
19966;DHT22;10144;50.874;4.762;2023-05-15T11:17:31;22.50;99.90
19966;DHT22;10144;50.874;4.762;2023-05-15T11:19:59;22.40;99.90
19966;DHT22;10144;50.874;4.762;2023-05-15T11:22:31;21.70;99.90
19966;DHT22;10144;50.874;4.762;2023-05-15T11:27:32;20.40;99.90
19966;DHT22;10144;50.874;4.762;2023-05-15T11:30:16;19.90;99.90
19966;DHT22;10144;50.874;4.762;2023-05-15T11:36:16;18.90;99.90
19966;DHT22;10144;50.874;4.762;2023-05-15T11:38:42;18.80;99.90
19966;DHT22;10144;50.874;4.762;2023-05-15T11:41:17;18.60;99.90
19966;DHT22;10144;50.874;4.762;2023-05-15T11:43:42;18.40;99.90
19966;DHT22;10144;50.874;4.762;2023-05-15T11:46:12;18.10;99.90
19966;DHT22;10144;50.874;4.762;2023-05-15T11:48:47;18.10;99.90
19966;DHT22;10144;50.874;4.762;2023-05-15T11:53:43;17.80;99.90
19966;DHT22;10144;50.874;4.762;2023-05-15T11:56:15;17.70;99.90
19966;DHT22;10144;50.874;4.762;2023-05-15T11:58:49;17.60;99.90
19966;DHT22;10144;50.874;4.762;2023-05-15T12:01:15;17.40;99.90
19966;DHT22;10144;50.874;4.762;2023-05-15T12:03:41;17.20;99.90
19966;DHT22;10144;50.874;4.762;2023-05-15T12:06:06;17.20;99.90
19966;DHT22;10144;50.874;4.762;2023-05-15T12:08:34;17.10;99.90
19966;DHT22;10144;50.874;4.762;2023-05-15T12:11:02;17.00;99.90
19966;DHT22;10144;50.874;4.762;2023-05-15T12:13:29;17.00;99.90
19966;DHT22;10144;50.874;4.762;2023-05-15T12:15:55;16.90;99.90
19966;DHT22;10144;50.874;4.762;2023-05-15T12:18:23;16.80;99.90
19966;DHT22;10144;50.874;4.762;2023-05-15T12:20:51;16.60;99.90
19966;DHT22;10144;50.874;4.762;2023-05-15T12:23:20;16.60;99.90
19966;DHT22;10144;50.874;4.762;2023-05-15T12:25:46;16.60;99.90
19966;DHT22;10144;50.874;4.762;2023-05-15T12:28:13;16.70;99.90
19966;DHT22;10144;50.874;4.762;2023-05-15T12:30:39;16.60;99.90
19966;DHT22;10144;50.874;4.762;2023-05-15T12:33:08;16.50;99.90
19966;DHT22;10144;50.874;4.762;2023-05-15T12:35:48;16.20;99.90
19966;DHT22;10144;50.874;4.762;2023-05-15T12:38:15;16.10;99.90
19966;DHT22;10144;50.874;4.762;2023-05-15T12:40:42;16.10;99.90
19966;DHT22;10144;50.874;4.762;2023-05-15T12:43:09;16.00;99.90
19966;DHT22;10144;50.874;4.762;2023-05-15T12:45:37;15.90;99.90
19966;DHT22;10144;50.874;4.762;2023-05-15T12:48:04;15.90;99.90
19966;DHT22;10144;50.874;4.762;2023-05-15T12:50:32;15.90;99.90
19966;DHT22;10144;50.874;4.762;2023-05-15T12:53:03;15.90;99.90
19966;DHT22;10144;50.874;4.762;2023-05-15T12:55:31;15.90;99.90
19966;DHT22;10144;50.874;4.762;2023-05-15T12:57:59;15.90;99.90
19966;DHT22;10144;50.874;4.762;2023-05-15T13:00:28;15.80;99.90
19966;DHT22;10144;50.874;4.762;2023-05-15T13:02:55;15.70;99.90
19966;DHT22;10144;50.874;4.762;2023-05-15T13:05:25;16.00;99.90
19966;DHT22;10144;50.874;4.762;2023-05-15T13:07:52;15.70;99.90
19966;DHT22;10144;50.874;4.762;2023-05-15T13:10:23;15.70;99.90
19966;DHT22;10144;50.874;4.762;2023-05-15T13:12:51;15.60;99.90
19966;DHT22;10144;50.874;4.762;2023-05-15T13:15:53;15.60;99.90
19966;DHT22;10144;50.874;4.762;2023-05-15T13:18:19;15.50;99.90
19966;DHT22;10144;50.874;4.762;2023-05-15T13:20:49;15.60;99.90
19966;DHT22;10144;50.874;4.762;2023-05-15T13:23:20;15.50;99.90
19966;DHT22;10144;50.874;4.762;2023-05-15T13:25:49;15.40;99.90
19966;DHT22;10144;50.874;4.762;2023-05-15T13:28:15;15.30;99.90
19966;DHT22;10144;50.874;4.762;2023-05-15T13:30:41;15.10;99.90
19966;DHT22;10144;50.874;4.762;2023-05-15T13:33:08;15.10;99.90
19966;DHT22;10144;50.874;4.762;2023-05-15T13:35:35;15.20;99.90
19966;DHT22;10144;50.874;4.762;2023-05-15T13:38:01;15.30;99.90
19966;DHT22;10144;50.874;4.762;2023-05-15T13:40:27;15.40;99.90
19966;DHT22;10144;50.874;4.762;2023-05-15T13:42:53;15.20;99.90
19966;DHT22;10144;50.874;4.762;2023-05-15T13:45:18;15.00;99.90
19966;DHT22;10144;50.874;4.762;2023-05-15T13:47:44;15.00;99.90
19966;DHT22;10144;50.874;4.762;2023-05-15T13:50:16;15.00;99.90
19966;DHT22;10144;50.874;4.762;2023-05-15T13:52:43;14.80;99.90
19966;DHT22;10144;50.874;4.762;2023-05-15T13:55:11;14.70;99.90
19966;DHT22;10144;50.874;4.762;2023-05-15T13:57:38;14.50;99.90
19966;DHT22;10144;50.874;4.762;2023-05-15T14:00:06;14.40;99.90
19966;DHT22;10144;50.874;4.762;2023-05-15T14:02:32;14.20;99.90
19966;DHT22;10144;50.874;4.762;2023-05-15T14:04:58;14.30;99.90
19966;DHT22;10144;50.874;4.762;2023-05-15T14:07:24;14.10;99.90
19966;DHT22;10144;50.874;4.762;2023-05-15T14:09:50;14.10;99.90
19966;DHT22;10144;50.874;4.762;2023-05-15T14:12:16;14.10;99.90
19966;DHT22;10144;50.874;4.762;2023-05-15T14:14:45;14.00;99.90
19966;DHT22;10144;50.874;4.762;2023-05-15T14:17:11;14.00;99.90
19966;DHT22;10144;50.874;4.762;2023-05-15T14:19:37;14.00;99.90
19966;DHT22;10144;50.874;4.762;2023-05-15T14:22:09;14.00;99.90
19966;DHT22;10144;50.874;4.762;2023-05-15T14:24:35;14.00;99.90
19966;DHT22;10144;50.874;4.762;2023-05-15T14:27:04;14.20;99.90
19966;DHT22;10144;50.874;4.762;2023-05-15T14:29:31;14.10;99.90
19966;DHT22;10144;50.874;4.762;2023-05-15T14:31:56;14.10;99.90
19966;DHT22;10144;50.874;4.762;2023-05-15T14:34:22;14.10;99.90
19966;DHT22;10144;50.874;4.762;2023-05-15T14:36:48;13.80;99.90
19966;DHT22;10144;50.874;4.762;2023-05-15T14:39:17;13.90;99.90
19966;DHT22;10144;50.874;4.762;2023-05-15T14:41:44;13.80;99.90
19966;DHT22;10144;50.874;4.762;2023-05-15T14:44:10;13.80;99.90
19966;DHT22;10144;50.874;4.762;2023-05-15T14:46:36;13.80;99.90
19966;DHT22;10144;50.874;4.762;2023-05-15T14:49:03;13.50;99.90
19966;DHT22;10144;50.874;4.762;2023-05-15T14:51:28;13.50;99.90
19966;DHT22;10144;50.874;4.762;2023-05-15T14:53:54;13.30;99.90
19966;DHT22;10144;50.874;4.762;2023-05-15T14:56:22;13.20;99.90
19966;DHT22;10144;50.874;4.762;2023-05-15T14:58:49;13.20;99.90
19966;DHT22;10144;50.874;4.762;2023-05-15T15:01:18;13.10;99.90
19966;DHT22;10144;50.874;4.762;2023-05-15T15:03:44;13.20;99.90
19966;DHT22;10144;50.874;4.762;2023-05-15T15:06:09;13.20;99.90
19966;DHT22;10144;50.874;4.762;2023-05-15T15:08:35;13.10;99.90
19966;DHT22;10144;50.874;4.762;2023-05-15T15:11:03;13.10;99.90
19966;DHT22;10144;50.874;4.762;2023-05-15T15:13:29;13.10;99.90
19966;DHT22;10144;50.874;4.762;2023-05-15T15:15:56;13.00;99.90
19966;DHT22;10144;50.874;4.762;2023-05-15T15:18:22;12.90;99.90
19966;DHT22;10144;50.874;4.762;2023-05-15T15:20:48;12.90;99.90
19966;DHT22;10144;50.874;4.762;2023-05-15T15:23:14;13.00;99.90
19966;DHT22;10144;50.874;4.762;2023-05-15T15:25:40;13.10;99.90
19966;DHT22;10144;50.874;4.762;2023-05-15T15:28:07;13.10;99.90
19966;DHT22;10144;50.874;4.762;2023-05-15T15:30:33;13.00;99.90
19966;DHT22;10144;50.874;4.762;2023-05-15T15:32:59;13.00;99.90
19966;DHT22;10144;50.874;4.762;2023-05-15T15:35:26;12.80;99.90
19966;DHT22;10144;50.874;4.762;2023-05-15T15:37:51;12.90;99.90
19966;DHT22;10144;50.874;4.762;2023-05-15T15:40:20;12.90;99.90
19966;DHT22;10144;50.874;4.762;2023-05-15T15:42:47;12.80;99.90
19966;DHT22;10144;50.874;4.762;2023-05-15T15:45:13;12.80;99.90
19966;DHT22;10144;50.874;4.762;2023-05-15T15:47:39;12.80;99.90
19966;DHT22;10144;50.874;4.762;2023-05-15T15:50:05;12.90;99.90
19966;DHT22;10144;50.874;4.762;2023-05-15T15:52:31;12.90;99.90
19966;DHT22;10144;50.874;4.762;2023-05-15T15:54:57;13.00;99.90
19966;DHT22;10144;50.874;4.762;2023-05-15T15:57:22;12.90;99.90